createdAt,value
2022-11-27T00:01:13.204Z,60.70
2022-11-27T00:03:41.293Z,60.70
2022-11-27T00:06:11.800Z,60.70
2022-11-27T00:08:38.610Z,60.90
2022-11-27T00:11:10.771Z,60.80
2022-11-27T00:13:37.740Z,60.80
2022-11-27T00:16:06.084Z,60.70
2022-11-27T00:18:33.559Z,60.70
2022-11-27T00:21:13.722Z,60.70
2022-11-27T00:23:41.045Z,60.80
2022-11-27T00:26:09.375Z,61.40
2022-11-27T00:28:36.771Z,60.60
2022-11-27T00:31:27.542Z,60.40
2022-11-27T00:33:55.821Z,60.90
2022-11-27T00:36:23.243Z,60.50
2022-11-27T00:38:50.415Z,60.50
2022-11-27T00:41:35.471Z,60.60
2022-11-27T00:44:02.170Z,60.50
2022-11-27T00:46:32.981Z,60.60
2022-11-27T00:49:03.662Z,60.60
2022-11-27T00:51:30.630Z,60.80
2022-11-27T00:53:58.188Z,60.60
2022-11-27T00:56:28.664Z,60.70
2022-11-27T00:58:55.946Z,60.70
2022-11-27T01:01:28.675Z,60.60
2022-11-27T01:03:57.062Z,60.80
2022-11-27T01:06:24.247Z,60.50
2022-11-27T01:08:51.293Z,60.40
2022-11-27T01:11:30.290Z,60.30
2022-11-27T01:14:00.286Z,60.30
2022-11-27T01:16:28.728Z,60.40
2022-11-27T01:18:57.851Z,60.30
2022-11-27T01:21:25.905Z,60.30
2022-11-27T01:23:54.139Z,60.40
2022-11-27T01:26:21.420Z,60.30
2022-11-27T01:28:51.304Z,60.50
2022-11-27T01:31:20.900Z,60.40
2022-11-27T01:33:51.775Z,60.50
2022-11-27T01:36:18.454Z,60.60
2022-11-27T01:38:45.214Z,60.60
2022-11-27T01:41:17.604Z,60.60
2022-11-27T01:44:05.642Z,60.50
2022-11-27T01:46:37.970Z,60.50
2022-11-27T01:49:10.690Z,60.60
2022-11-27T01:51:42.313Z,60.80
2022-11-27T01:54:10.491Z,61.70
2022-11-27T01:56:40.218Z,61.00
2022-11-27T01:59:08.037Z,60.30
2022-11-27T02:01:34.798Z,60.00
2022-11-27T02:04:02.610Z,59.90
2022-11-27T02:06:29.347Z,59.80
2022-11-27T02:08:56.501Z,59.80
2022-11-27T02:11:39.230Z,60.00
2022-11-27T02:14:39.518Z,59.90
2022-11-27T02:17:17.010Z,59.90
2022-11-27T02:20:21.134Z,59.90
2022-11-27T02:23:21.669Z,60.00
2022-11-27T02:25:57.362Z,60.30
2022-11-27T02:29:10.290Z,60.00
2022-11-27T02:31:52.085Z,60.00
2022-11-27T02:34:40.557Z,59.90
2022-11-27T02:37:13.256Z,60.10
2022-11-27T02:39:53.483Z,60.20
2022-11-27T02:42:21.330Z,60.10
2022-11-27T02:44:57.118Z,60.10
2022-11-27T02:47:24.192Z,60.20
2022-11-27T02:49:52.649Z,60.30
2022-11-27T02:52:20.514Z,60.20
2022-11-27T02:54:50.138Z,60.90
2022-11-27T02:57:18.837Z,60.50
2022-11-27T02:59:45.833Z,60.50
2022-11-27T03:02:19.389Z,60.30
2022-11-27T03:04:54.061Z,60.30
2022-11-27T03:07:37.966Z,60.30
2022-11-27T03:10:12.713Z,60.30
2022-11-27T03:12:39.695Z,60.20
2022-11-27T03:15:07.310Z,60.20
2022-11-27T03:17:51.914Z,60.10
2022-11-27T03:20:21.687Z,60.10
2022-11-27T03:22:48.441Z,60.10
2022-11-27T03:25:16.325Z,60.20
2022-11-27T03:27:57.475Z,60.00
2022-11-27T03:30:24.327Z,59.90
2022-11-27T03:32:51.269Z,59.90
2022-11-27T03:35:21.956Z,60.10
2022-11-27T03:37:49.557Z,59.90
2022-11-27T03:40:17.148Z,59.80
2022-11-27T03:42:58.190Z,59.70
2022-11-27T03:45:24.830Z,59.90
2022-11-27T03:48:21.886Z,59.90
2022-11-27T03:51:00.710Z,59.90
2022-11-27T03:53:35.497Z,59.70
2022-11-27T03:56:25.593Z,59.80
2022-11-27T03:58:58.920Z,59.60
2022-11-27T04:01:28.025Z,59.70
2022-11-27T04:03:54.854Z,59.80
2022-11-27T04:06:21.530Z,59.60
2022-11-27T04:08:48.798Z,59.60
2022-11-27T04:11:16.071Z,59.20
2022-11-27T04:13:43.261Z,59.30
2022-11-27T04:16:10.026Z,59.30
2022-11-27T04:18:36.773Z,59.30
2022-11-27T04:21:03.854Z,59.00
2022-11-27T04:23:30.502Z,58.90
2022-11-27T04:25:57.203Z,58.90
2022-11-27T04:28:23.867Z,58.80
2022-11-27T04:30:54.814Z,58.90
2022-11-27T04:33:22.394Z,58.70
2022-11-27T04:35:53.351Z,59.00
2022-11-27T04:38:21.005Z,59.10
2022-11-27T04:40:48.224Z,58.70
2022-11-27T04:43:15.929Z,58.70
2022-11-27T04:45:44.305Z,59.50
2022-11-27T04:48:12.320Z,58.70
2022-11-27T04:50:39.410Z,58.50
2022-11-27T04:53:06.242Z,58.40
2022-11-27T04:55:32.901Z,58.10
2022-11-27T04:57:59.673Z,58.10
2022-11-27T05:00:26.447Z,58.00
2022-11-27T05:02:53.150Z,58.40
2022-11-27T05:05:19.886Z,58.10
2022-11-27T05:07:46.664Z,58.00
2022-11-27T05:10:13.440Z,58.10
2022-11-27T05:12:40.177Z,57.90
2022-11-27T05:15:07.677Z,57.90
2022-11-27T05:17:34.401Z,57.80
2022-11-27T05:20:01.204Z,57.50
2022-11-27T05:22:28.008Z,57.60
2022-11-27T05:24:54.725Z,57.80
2022-11-27T05:27:21.365Z,57.60
2022-11-27T05:29:48.134Z,58.00
2022-11-27T05:32:14.926Z,57.70
2022-11-27T05:34:41.742Z,58.00
2022-11-27T05:37:08.731Z,57.80
2022-11-27T05:39:35.608Z,58.00
2022-11-27T05:42:02.267Z,57.80
2022-11-27T05:44:29.168Z,57.70
2022-11-27T05:46:57.119Z,57.50
2022-11-27T05:49:23.860Z,58.10
2022-11-27T05:51:51.551Z,57.60
2022-11-27T05:54:19.000Z,57.70
2022-11-27T05:56:45.898Z,57.80
2022-11-27T05:59:12.815Z,57.90
2022-11-27T06:01:39.627Z,58.10
2022-11-27T06:04:06.340Z,58.40
2022-11-27T06:06:33.045Z,58.40
2022-11-27T06:09:00.384Z,58.70
2022-11-27T06:11:27.536Z,59.10
2022-11-27T06:13:54.269Z,59.00
2022-11-27T06:16:23.681Z,59.00
2022-11-27T06:18:55.071Z,59.30
2022-11-27T06:21:24.100Z,59.20
2022-11-27T06:23:56.850Z,59.30
2022-11-27T06:26:26.145Z,59.40
2022-11-27T06:28:55.104Z,59.30
2022-11-27T06:31:24.491Z,59.30
2022-11-27T06:33:53.200Z,59.60
2022-11-27T06:36:21.210Z,59.50
2022-11-27T06:38:47.900Z,59.50
2022-11-27T06:41:17.746Z,59.80
2022-11-27T06:43:44.959Z,59.60
2022-11-27T06:46:15.327Z,59.60
2022-11-27T06:48:43.147Z,59.70
2022-11-27T06:51:12.643Z,59.70
2022-11-27T06:53:39.807Z,59.80
2022-11-27T06:56:09.121Z,60.40
2022-11-27T06:58:39.615Z,60.00
2022-11-27T07:01:13.044Z,60.10
2022-11-27T07:03:40.163Z,60.00
2022-11-27T07:06:08.708Z,60.20
2022-11-27T07:08:36.578Z,60.30
2022-11-27T07:11:07.845Z,60.30
2022-11-27T07:13:34.603Z,60.40
2022-11-27T07:16:02.996Z,60.50
2022-11-27T07:18:30.470Z,60.60
2022-11-27T07:20:57.625Z,60.80
2022-11-27T07:23:24.373Z,60.80
2022-11-27T07:25:51.020Z,61.00
2022-11-27T07:28:19.286Z,61.20
2022-11-27T07:30:46.279Z,61.20
2022-11-27T07:33:12.986Z,61.20
2022-11-27T07:35:40.721Z,61.40
2022-11-27T07:38:07.450Z,61.40
2022-11-27T07:40:34.188Z,61.50
2022-11-27T07:43:00.913Z,61.50
2022-11-27T07:45:27.593Z,61.70
2022-11-27T07:47:54.321Z,62.10
2022-11-27T07:50:21.075Z,62.20
2022-11-27T07:52:47.821Z,62.10
2022-11-27T07:55:14.610Z,62.10
2022-11-27T07:57:42.460Z,62.20
2022-11-27T08:00:10.169Z,62.40
2022-11-27T08:02:36.893Z,62.40
2022-11-27T08:05:10.933Z,62.50
2022-11-27T08:07:39.522Z,62.40
2022-11-27T08:10:06.979Z,62.50
2022-11-27T08:12:34.744Z,62.60
2022-11-27T08:15:01.566Z,62.80
2022-11-27T08:17:28.308Z,62.90
2022-11-27T08:19:55.037Z,63.00
2022-11-27T08:22:21.824Z,62.90
2022-11-27T08:24:48.780Z,63.70
2022-11-27T08:27:16.429Z,63.10
2022-11-27T08:29:43.337Z,63.20
2022-11-27T08:32:10.529Z,63.20
2022-11-27T08:34:37.683Z,63.20
2022-11-27T08:37:05.807Z,63.20
2022-11-27T08:39:32.723Z,63.40
2022-11-27T08:41:59.950Z,63.50
2022-11-27T08:44:26.715Z,63.50
2022-11-27T08:46:53.446Z,63.50
2022-11-27T08:49:20.218Z,63.60
2022-11-27T08:51:46.945Z,63.70
2022-11-27T08:54:13.654Z,64.00
2022-11-27T08:56:40.541Z,64.10
2022-11-27T08:59:07.309Z,64.20
2022-11-27T09:01:34.319Z,64.40
2022-11-27T09:04:01.359Z,64.30
2022-11-27T09:06:30.580Z,64.10
2022-11-27T09:08:58.541Z,64.20
2022-11-27T09:11:26.627Z,64.40
2022-11-27T09:13:53.404Z,64.30
2022-11-27T09:16:22.379Z,64.50
2022-11-27T09:18:52.501Z,64.50
2022-11-27T09:21:21.917Z,64.50
2022-11-27T09:23:52.350Z,64.50
2022-11-27T09:26:19.358Z,64.60
2022-11-27T09:28:46.344Z,64.50
2022-11-27T09:31:15.013Z,64.40
2022-11-27T09:33:42.577Z,64.30
2022-11-27T09:36:13.216Z,64.60
2022-11-27T09:38:40.056Z,64.80
2022-11-27T09:41:21.502Z,64.90
2022-11-27T09:43:56.719Z,65.10
2022-11-27T09:46:37.347Z,65.10
2022-11-27T09:49:08.500Z,65.20
2022-11-27T09:51:47.797Z,65.30
2022-11-27T09:54:42.033Z,65.20
2022-11-27T09:57:16.107Z,65.40
2022-11-27T09:59:50.855Z,65.30
2022-11-27T10:02:30.392Z,64.90
2022-11-27T10:05:13.453Z,65.00
2022-11-27T10:07:55.562Z,65.00
2022-11-27T10:10:53.205Z,65.10
2022-11-27T10:13:45.985Z,64.90
2022-11-27T10:16:42.851Z,64.90
2022-11-27T10:19:13.986Z,65.00
2022-11-27T10:22:19.692Z,64.80
2022-11-27T10:25:16.094Z,64.70
2022-11-27T10:28:05.831Z,64.40
2022-11-27T10:30:39.597Z,64.30
2022-11-27T10:33:22.222Z,64.70
2022-11-27T10:35:50.265Z,64.50
2022-11-27T10:38:22.331Z,64.40
2022-11-27T10:41:07.792Z,64.50
2022-11-27T10:43:36.443Z,64.60
2022-11-27T10:46:14.750Z,64.60
2022-11-27T10:48:41.879Z,64.70
2022-11-27T10:51:19.042Z,64.80
2022-11-27T10:53:49.634Z,64.70
2022-11-27T10:56:45.355Z,64.70
2022-11-27T10:59:18.133Z,64.70
2022-11-27T11:01:47.663Z,64.50
2022-11-27T11:04:36.986Z,64.50
2022-11-27T11:07:04.564Z,64.40
2022-11-27T11:09:34.572Z,64.30
2022-11-27T11:12:21.135Z,64.20
2022-11-27T11:14:59.864Z,64.30
2022-11-27T11:17:27.851Z,64.40
2022-11-27T11:19:55.074Z,64.40
2022-11-27T11:22:22.208Z,64.00
2022-11-27T11:24:51.793Z,64.20
2022-11-27T11:27:30.273Z,64.20
2022-11-27T11:30:01.069Z,64.10
2022-11-27T11:32:36.216Z,64.20
2022-11-27T11:35:24.952Z,64.20
2022-11-27T11:37:53.249Z,63.80
2022-11-27T11:40:19.892Z,64.10
2022-11-27T11:43:10.076Z,64.10
2022-11-27T11:45:46.710Z,64.00
2022-11-27T11:48:27.593Z,63.90
2022-11-27T11:51:16.267Z,63.80
2022-11-27T11:53:48.435Z,63.90
2022-11-27T11:56:32.924Z,63.70
2022-11-27T11:59:18.411Z,63.40
2022-11-27T12:02:14.678Z,63.60
2022-11-27T12:05:07.323Z,63.60
2022-11-27T12:07:54.931Z,63.10
2022-11-27T12:10:30.536Z,62.90
2022-11-27T12:13:06.528Z,63.00
2022-11-27T12:15:46.222Z,62.70
2022-11-27T12:18:29.747Z,62.20
2022-11-27T12:21:17.848Z,62.00
2022-11-27T12:23:59.271Z,62.20
2022-11-27T12:26:42.042Z,62.00
2022-11-27T12:29:14.771Z,61.90
2022-11-27T12:32:18.134Z,61.90
2022-11-27T12:35:00.261Z,61.70
2022-11-27T12:37:41.629Z,61.80
2022-11-27T12:40:25.852Z,61.30
2022-11-27T12:43:15.671Z,61.20
2022-11-27T12:46:05.934Z,61.60
2022-11-27T12:49:01.462Z,61.90
2022-11-27T12:51:54.585Z,62.00
2022-11-27T12:54:29.289Z,61.90
2022-11-27T12:57:02.390Z,60.80
2022-11-27T12:59:35.154Z,60.90
2022-11-27T13:02:08.992Z,60.80
2022-11-27T13:05:00.183Z,60.70
2022-11-27T13:07:45.741Z,60.80
2022-11-27T13:10:22.563Z,61.10
2022-11-27T13:12:53.722Z,60.10
2022-11-27T13:15:38.747Z,60.50
2022-11-27T13:18:34.947Z,60.00
2022-11-27T13:21:09.386Z,60.00
2022-11-27T13:23:36.291Z,60.00
2022-11-27T13:26:07.212Z,60.10
2022-11-27T13:28:45.666Z,60.20
2022-11-27T13:31:25.330Z,59.80
2022-11-27T13:33:59.321Z,59.40
2022-11-27T13:36:36.235Z,59.60
2022-11-27T13:39:03.883Z,59.30
2022-11-27T13:41:40.081Z,59.30
2022-11-27T13:44:26.187Z,59.50
2022-11-27T13:47:00.154Z,59.20
2022-11-27T13:49:33.085Z,59.40
2022-11-27T13:52:18.732Z,59.50
2022-11-27T13:54:56.643Z,59.70
2022-11-27T13:57:25.416Z,59.50
2022-11-27T14:00:12.062Z,60.00
2022-11-27T14:02:49.138Z,60.70
2022-11-27T14:05:21.607Z,59.60
2022-11-27T14:07:53.910Z,59.60
2022-11-27T14:10:31.487Z,59.20
2022-11-27T14:13:09.875Z,59.80
2022-11-27T14:15:38.346Z,60.00
2022-11-27T14:18:17.938Z,60.40
2022-11-27T14:20:51.673Z,59.90
2022-11-27T14:23:53.822Z,59.90
2022-11-27T14:26:24.105Z,60.80
2022-11-27T14:28:55.807Z,60.40
2022-11-27T14:31:33.689Z,60.30
2022-11-27T14:34:20.810Z,60.20
2022-11-27T14:36:52.538Z,60.40
2022-11-27T14:39:34.717Z,60.30
2022-11-27T14:42:18.821Z,60.20
2022-11-27T14:44:45.553Z,60.00
2022-11-27T14:47:19.843Z,60.30
2022-11-27T14:49:46.996Z,60.00
2022-11-27T14:52:16.493Z,59.90
2022-11-27T14:54:44.714Z,59.90
2022-11-27T14:57:20.126Z,59.70
2022-11-27T14:59:46.843Z,59.60
2022-11-27T15:02:13.719Z,59.70
2022-11-27T15:04:42.716Z,59.70
2022-11-27T15:07:20.645Z,59.80
2022-11-27T15:09:53.716Z,59.80
2022-11-27T15:12:26.436Z,59.70
2022-11-27T15:15:16.860Z,59.40
2022-11-27T15:17:48.147Z,59.30
2022-11-27T15:20:18.401Z,59.50
2022-11-27T15:22:57.269Z,59.10
2022-11-27T15:25:39.974Z,59.10
2022-11-27T15:28:28.508Z,58.80
2022-11-27T15:30:55.922Z,58.90
2022-11-27T15:33:27.576Z,60.90
2022-11-27T15:36:13.957Z,59.40
2022-11-27T15:38:41.566Z,59.20
2022-11-27T15:41:24.326Z,59.40
2022-11-27T15:43:51.903Z,59.20
2022-11-27T15:46:27.601Z,59.10
2022-11-27T15:48:54.280Z,59.00
2022-11-27T15:51:21.093Z,59.40
2022-11-27T15:53:48.708Z,59.30
2022-11-27T15:56:16.195Z,59.30
2022-11-27T15:58:43.421Z,59.10
2022-11-27T16:01:11.426Z,58.70
2022-11-27T16:03:39.937Z,58.80
2022-11-27T16:06:08.867Z,59.10
2022-11-27T16:08:36.853Z,58.60
2022-11-27T16:11:06.696Z,58.30
2022-11-27T16:13:33.894Z,58.40
2022-11-27T16:16:06.224Z,58.50
2022-11-27T16:18:34.324Z,58.40
2022-11-27T16:21:05.652Z,58.30
2022-11-27T16:23:32.887Z,58.40
2022-11-27T16:25:59.961Z,58.40
2022-11-27T16:28:27.994Z,58.40
2022-11-27T16:30:57.287Z,58.10
2022-11-27T16:33:30.908Z,58.50
2022-11-27T16:36:11.353Z,58.30
2022-11-27T16:38:38.772Z,58.20
2022-11-27T16:41:10.923Z,58.40
2022-11-27T16:43:40.457Z,58.10
2022-11-27T16:46:13.172Z,58.30
2022-11-27T16:48:42.125Z,58.50
2022-11-27T16:51:11.800Z,58.00
2022-11-27T16:53:40.313Z,58.30
2022-11-27T16:56:08.975Z,58.40
2022-11-27T16:58:36.233Z,58.60
2022-11-27T17:01:07.472Z,59.70
2022-11-27T17:03:34.912Z,59.00
2022-11-27T17:06:06.555Z,58.60
2022-11-27T17:08:33.272Z,58.80
2022-11-27T17:11:14.044Z,58.80
2022-11-27T17:13:40.914Z,58.10
2022-11-27T17:16:11.571Z,57.90
2022-11-27T17:18:40.038Z,58.10
2022-11-27T17:21:16.602Z,58.70
2022-11-27T17:23:46.578Z,59.10
2022-11-27T17:26:17.048Z,59.70
2022-11-27T17:28:44.055Z,60.20
2022-11-27T17:31:13.089Z,61.10
2022-11-27T17:33:39.802Z,61.90
2022-11-27T17:36:06.841Z,62.40
2022-11-27T17:38:33.647Z,62.20
2022-11-27T17:41:12.002Z,62.10
2022-11-27T17:43:40.098Z,62.10
2022-11-27T17:46:13.788Z,61.80
2022-11-27T17:48:40.617Z,61.90
2022-11-27T17:51:07.599Z,62.10
2022-11-27T17:53:34.845Z,61.40
2022-11-27T17:56:10.088Z,61.50
2022-11-27T17:58:37.214Z,60.80
2022-11-27T18:01:05.343Z,60.80
2022-11-27T18:03:33.660Z,60.90
2022-11-27T18:06:05.450Z,60.90
2022-11-27T18:08:32.974Z,61.00
2022-11-27T18:11:08.704Z,60.80
2022-11-27T18:13:35.836Z,60.80
2022-11-27T18:16:29.497Z,60.70
2022-11-27T18:18:57.564Z,60.70
2022-11-27T18:21:27.139Z,60.90
2022-11-27T18:29:29.019Z,60.90
2022-11-27T18:31:55.847Z,61.00
2022-11-27T18:34:22.647Z,60.90
2022-11-27T18:36:49.356Z,61.10
2022-11-27T18:39:16.371Z,61.10
2022-11-27T18:41:43.186Z,61.00
2022-11-27T18:44:10.133Z,61.10
2022-11-27T18:46:37.003Z,61.00
2022-11-27T18:49:04.090Z,61.80
2022-11-27T18:51:30.794Z,61.50
2022-11-27T18:53:57.693Z,61.60
2022-11-27T18:56:30.575Z,61.40
2022-11-27T18:59:01.691Z,61.20
2022-11-27T19:01:30.711Z,61.60
2022-11-27T19:04:00.053Z,61.60
2022-11-27T19:06:28.478Z,61.60
2022-11-27T19:08:56.563Z,61.70
2022-11-27T19:11:23.918Z,61.70
2022-11-27T19:13:53.286Z,61.80
2022-11-27T19:16:23.154Z,61.50
2022-11-27T19:18:50.198Z,61.40
2022-11-27T19:21:23.044Z,61.50
2022-11-27T19:23:50.848Z,61.50
2022-11-27T19:26:22.181Z,61.40
2022-11-27T19:28:50.626Z,61.40
2022-11-27T19:31:17.721Z,61.70
2022-11-27T19:33:45.008Z,61.30
2022-11-27T19:36:13.865Z,61.30
2022-11-27T19:38:42.475Z,61.40
2022-11-27T19:41:11.485Z,61.40
2022-11-27T19:43:38.264Z,61.80
2022-11-27T19:46:22.204Z,61.50
2022-11-27T19:48:49.800Z,61.80
2022-11-27T19:51:16.978Z,61.50
2022-11-27T19:53:44.469Z,61.40
2022-11-27T19:56:12.449Z,61.50
2022-11-27T19:58:40.206Z,61.40
2022-11-27T20:01:15.960Z,62.20
2022-11-27T20:03:44.110Z,61.70
2022-11-27T20:06:13.829Z,61.40
2022-11-27T20:08:42.426Z,61.50
2022-11-27T20:11:11.453Z,61.40
2022-11-27T20:13:38.466Z,61.30
2022-11-27T20:16:09.996Z,61.90
2022-11-27T20:18:37.877Z,61.20
2022-11-27T20:21:12.370Z,61.10
2022-11-27T20:23:40.121Z,61.10
2022-11-27T20:26:08.983Z,61.10
2022-11-27T20:28:38.810Z,61.20
2022-11-27T20:31:05.684Z,61.10
2022-11-27T20:33:32.518Z,61.30
2022-11-27T20:36:00.341Z,61.40
2022-11-27T20:38:28.193Z,61.20
2022-11-27T20:40:55.170Z,61.30
2022-11-27T20:43:22.899Z,61.90
2022-11-27T20:45:52.975Z,60.70
2022-11-27T20:48:19.852Z,60.90
2022-11-27T20:50:51.707Z,60.90
2022-11-27T20:53:19.609Z,60.60
2022-11-27T20:55:46.674Z,60.70
2022-11-27T20:58:13.448Z,60.60
2022-11-27T21:00:40.349Z,60.60
2022-11-27T21:03:07.391Z,61.20
2022-11-27T21:05:34.233Z,60.80
2022-11-27T21:08:01.035Z,60.60
2022-11-27T21:10:28.397Z,60.90
2022-11-27T21:12:55.218Z,60.80
2022-11-27T21:15:22.019Z,60.60
2022-11-27T21:17:48.680Z,60.40
2022-11-27T21:20:15.480Z,60.30
2022-11-27T21:22:44.002Z,60.40
2022-11-27T21:25:10.853Z,60.40
2022-11-27T21:27:39.762Z,60.60
2022-11-27T21:30:07.133Z,60.30
2022-11-27T21:32:33.850Z,60.80
2022-11-27T21:35:01.065Z,60.30
2022-11-27T21:37:27.860Z,60.40
2022-11-27T21:39:54.642Z,60.60
2022-11-27T21:42:21.445Z,60.80
2022-11-27T21:44:48.184Z,61.00
2022-11-27T21:47:14.939Z,61.20
2022-11-27T21:49:41.911Z,61.40
2022-11-27T21:52:08.672Z,61.70
2022-11-27T21:54:36.194Z,62.00
2022-11-27T21:57:03.150Z,62.00
2022-11-27T21:59:29.925Z,62.30
2022-11-27T22:01:57.362Z,62.50
2022-11-27T22:04:25.533Z,62.50
2022-11-27T22:06:52.598Z,62.70
2022-11-27T22:09:19.314Z,62.70
2022-11-27T22:11:47.068Z,62.90
2022-11-27T22:14:19.890Z,63.20
2022-11-27T22:16:47.352Z,63.40
2022-11-27T22:19:14.731Z,63.40
2022-11-27T22:21:41.936Z,63.60
2022-11-27T22:24:14.847Z,63.70
2022-11-27T22:26:44.899Z,63.80
2022-11-27T22:29:11.589Z,64.00
2022-11-27T22:31:39.400Z,63.90
2022-11-27T22:34:06.138Z,63.90
2022-11-27T22:36:34.508Z,63.90
2022-11-27T22:39:04.957Z,64.00
2022-11-27T22:41:35.338Z,64.20
2022-11-27T22:44:09.162Z,64.30
2022-11-27T22:46:39.487Z,64.40
2022-11-27T22:49:06.794Z,64.40
2022-11-27T22:51:35.149Z,64.30
2022-11-27T22:54:02.280Z,64.30
2022-11-27T22:56:29.257Z,64.30
2022-11-27T22:59:17.596Z,64.50
2022-11-27T23:01:44.410Z,64.60
2022-11-27T23:04:11.114Z,64.70
2022-11-27T23:06:38.011Z,64.70
2022-11-27T23:09:04.885Z,64.80
2022-11-27T23:11:31.854Z,65.00
2022-11-27T23:13:59.791Z,65.00
2022-11-27T23:16:26.709Z,65.10
2022-11-27T23:18:53.589Z,65.20
2022-11-27T23:21:22.724Z,65.20
2022-11-27T23:23:50.367Z,65.20
2022-11-27T23:26:22.991Z,65.30
2022-11-27T23:28:51.943Z,65.30
2022-11-27T23:31:31.980Z,65.30
2022-11-27T23:34:01.841Z,65.30
2022-11-27T23:36:30.036Z,65.40
2022-11-27T23:38:58.731Z,65.40
2022-11-27T23:41:25.365Z,65.60
2022-11-27T23:43:53.299Z,65.50
2022-11-27T23:46:22.134Z,65.50
2022-11-27T23:48:49.361Z,65.80
2022-11-27T23:51:19.699Z,66.00
2022-11-27T23:53:47.330Z,66.00
2022-11-27T23:56:17.987Z,66.10
2022-11-27T23:58:47.326Z,66.30
